sensor_id;sensor_type;location;lat;lon;timestamp;P1;durP1;ratioP1;P2;durP2;ratioP2
42724;SDS011;28369;44.046;23.014;2023-05-10T00:01:04;9.60;;;5.88;;
42724;SDS011;28369;44.046;23.014;2023-05-10T00:03:29;10.55;;;6.47;;
42724;SDS011;28369;44.046;23.014;2023-05-10T00:05:55;7.13;;;6.13;;
42724;SDS011;28369;44.046;23.014;2023-05-10T00:08:20;8.75;;;7.05;;
42724;SDS011;28369;44.046;23.014;2023-05-10T00:10:46;12.05;;;6.35;;
42724;SDS011;28369;44.046;23.014;2023-05-10T00:13:11;10.15;;;6.35;;
42724;SDS011;28369;44.046;23.014;2023-05-10T00:15:37;7.95;;;6.32;;
42724;SDS011;28369;44.046;23.014;2023-05-10T00:18:02;6.53;;;5.82;;
42724;SDS011;28369;44.046;23.014;2023-05-10T00:20:28;7.25;;;6.28;;
42724;SDS011;28369;44.046;23.014;2023-05-10T00:22:54;9.95;;;6.10;;
42724;SDS011;28369;44.046;23.014;2023-05-10T00:25:19;10.20;;;6.22;;
42724;SDS011;28369;44.046;23.014;2023-05-10T00:27:46;9.85;;;6.45;;
42724;SDS011;28369;44.046;23.014;2023-05-10T00:30:12;10.32;;;6.40;;
42724;SDS011;28369;44.046;23.014;2023-05-10T00:32:38;9.18;;;6.05;;
42724;SDS011;28369;44.046;23.014;2023-05-10T00:35:04;11.02;;;6.15;;
42724;SDS011;28369;44.046;23.014;2023-05-10T00:37:30;10.57;;;5.82;;
42724;SDS011;28369;44.046;23.014;2023-05-10T00:39:55;6.88;;;5.90;;
42724;SDS011;28369;44.046;23.014;2023-05-10T00:42:21;8.90;;;6.70;;
42724;SDS011;28369;44.046;23.014;2023-05-10T00:44:47;9.68;;;6.15;;
42724;SDS011;28369;44.046;23.014;2023-05-10T00:47:12;7.22;;;5.60;;
42724;SDS011;28369;44.046;23.014;2023-05-10T00:49:38;8.52;;;5.90;;
42724;SDS011;28369;44.046;23.014;2023-05-10T00:52:05;7.88;;;6.57;;
42724;SDS011;28369;44.046;23.014;2023-05-10T00:54:31;6.18;;;5.50;;
42724;SDS011;28369;44.046;23.014;2023-05-10T00:56:56;10.77;;;6.82;;
42724;SDS011;28369;44.046;23.014;2023-05-10T00:59:22;9.23;;;6.75;;
42724;SDS011;28369;44.046;23.014;2023-05-10T01:01:48;7.15;;;6.45;;
42724;SDS011;28369;44.046;23.014;2023-05-10T01:04:14;9.38;;;6.75;;
42724;SDS011;28369;44.046;23.014;2023-05-10T01:06:43;6.88;;;5.78;;
42724;SDS011;28369;44.046;23.014;2023-05-10T01:09:09;13.77;;;6.90;;
42724;SDS011;28369;44.046;23.014;2023-05-10T01:11:36;8.50;;;6.88;;
42724;SDS011;28369;44.046;23.014;2023-05-10T01:14:03;8.00;;;6.78;;
42724;SDS011;28369;44.046;23.014;2023-05-10T01:16:34;7.93;;;6.88;;
42724;SDS011;28369;44.046;23.014;2023-05-10T01:19:04;7.72;;;6.93;;
42724;SDS011;28369;44.046;23.014;2023-05-10T01:21:49;7.00;;;6.22;;
42724;SDS011;28369;44.046;23.014;2023-05-10T01:35:51;9.80;;;6.78;;
42724;SDS011;28369;44.046;23.014;2023-05-10T01:43:37;9.57;;;7.10;;
42724;SDS011;28369;44.046;23.014;2023-05-10T01:46:16;10.80;;;7.15;;
42724;SDS011;28369;44.046;23.014;2023-05-10T01:48:49;10.00;;;8.35;;
42724;SDS011;28369;44.046;23.014;2023-05-10T01:51:20;9.98;;;8.10;;
42724;SDS011;28369;44.046;23.014;2023-05-10T01:53:48;9.98;;;8.05;;
42724;SDS011;28369;44.046;23.014;2023-05-10T01:56:16;13.65;;;8.43;;
42724;SDS011;28369;44.046;23.014;2023-05-10T01:58:46;13.05;;;8.57;;
42724;SDS011;28369;44.046;23.014;2023-05-10T02:01:13;9.55;;;8.32;;
42724;SDS011;28369;44.046;23.014;2023-05-10T02:03:40;12.88;;;8.68;;
42724;SDS011;28369;44.046;23.014;2023-05-10T02:06:08;8.93;;;7.95;;
42724;SDS011;28369;44.046;23.014;2023-05-10T02:08:38;11.75;;;8.70;;
42724;SDS011;28369;44.046;23.014;2023-05-10T02:11:05;11.10;;;8.60;;
42724;SDS011;28369;44.046;23.014;2023-05-10T02:13:32;12.23;;;8.95;;
42724;SDS011;28369;44.046;23.014;2023-05-10T02:16:01;12.32;;;8.68;;
42724;SDS011;28369;44.046;23.014;2023-05-10T02:18:28;11.15;;;8.80;;
42724;SDS011;28369;44.046;23.014;2023-05-10T02:20:56;16.23;;;9.23;;
42724;SDS011;28369;44.046;23.014;2023-05-10T02:23:23;14.40;;;9.55;;
42724;SDS011;28369;44.046;23.014;2023-05-10T02:25:50;10.13;;;8.75;;
42724;SDS011;28369;44.046;23.014;2023-05-10T02:28:18;13.20;;;9.10;;
42724;SDS011;28369;44.046;23.014;2023-05-10T02:30:46;10.82;;;8.93;;
42724;SDS011;28369;44.046;23.014;2023-05-10T02:33:12;10.00;;;9.00;;
42724;SDS011;28369;44.046;23.014;2023-05-10T02:35:39;14.95;;;9.82;;
42724;SDS011;28369;44.046;23.014;2023-05-10T02:38:06;12.38;;;9.63;;
42724;SDS011;28369;44.046;23.014;2023-05-10T02:40:32;11.32;;;9.55;;
42724;SDS011;28369;44.046;23.014;2023-05-10T02:42:59;10.68;;;9.02;;
42724;SDS011;28369;44.046;23.014;2023-05-10T02:45:28;15.77;;;10.20;;
42724;SDS011;28369;44.046;23.014;2023-05-10T02:47:56;15.35;;;9.25;;
42724;SDS011;28369;44.046;23.014;2023-05-10T02:50:22;10.98;;;9.93;;
42724;SDS011;28369;44.046;23.014;2023-05-10T02:52:51;13.73;;;9.32;;
42724;SDS011;28369;44.046;23.014;2023-05-10T02:55:19;12.98;;;9.82;;
42724;SDS011;28369;44.046;23.014;2023-05-10T02:57:54;12.17;;;10.13;;
42724;SDS011;28369;44.046;23.014;2023-05-10T03:00:24;10.95;;;9.68;;
42724;SDS011;28369;44.046;23.014;2023-05-10T03:02:50;13.35;;;9.35;;
42724;SDS011;28369;44.046;23.014;2023-05-10T03:05:16;12.95;;;10.00;;
42724;SDS011;28369;44.046;23.014;2023-05-10T03:07:42;10.60;;;9.23;;
42724;SDS011;28369;44.046;23.014;2023-05-10T03:10:08;11.27;;;10.23;;
42724;SDS011;28369;44.046;23.014;2023-05-10T03:20:52;11.10;;;9.75;;
42724;SDS011;28369;44.046;23.014;2023-05-10T03:23:27;13.85;;;10.05;;
42724;SDS011;28369;44.046;23.014;2023-05-10T03:25:59;12.50;;;10.40;;
42724;SDS011;28369;44.046;23.014;2023-05-10T03:28:25;15.30;;;10.18;;
42724;SDS011;28369;44.046;23.014;2023-05-10T03:30:54;14.27;;;9.32;;
42724;SDS011;28369;44.046;23.014;2023-05-10T03:33:21;12.07;;;9.02;;
42724;SDS011;28369;44.046;23.014;2023-05-10T03:35:47;10.35;;;9.30;;
42724;SDS011;28369;44.046;23.014;2023-05-10T03:38:12;10.57;;;9.20;;
42724;SDS011;28369;44.046;23.014;2023-05-10T03:40:38;10.82;;;9.40;;
42724;SDS011;28369;44.046;23.014;2023-05-10T03:43:04;10.50;;;9.15;;
42724;SDS011;28369;44.046;23.014;2023-05-10T03:45:30;10.30;;;9.18;;
42724;SDS011;28369;44.046;23.014;2023-05-10T03:47:56;15.40;;;9.20;;
42724;SDS011;28369;44.046;23.014;2023-05-10T03:50:22;11.07;;;9.95;;
42724;SDS011;28369;44.046;23.014;2023-05-10T03:52:48;10.43;;;9.30;;
42724;SDS011;28369;44.046;23.014;2023-05-10T03:55:14;11.27;;;8.18;;
42724;SDS011;28369;44.046;23.014;2023-05-10T03:57:41;10.13;;;9.10;;
42724;SDS011;28369;44.046;23.014;2023-05-10T04:00:07;11.55;;;8.63;;
42724;SDS011;28369;44.046;23.014;2023-05-10T04:02:33;9.70;;;8.70;;
42724;SDS011;28369;44.046;23.014;2023-05-10T04:04:58;10.48;;;8.93;;
42724;SDS011;28369;44.046;23.014;2023-05-10T04:07:24;9.75;;;7.47;;
42724;SDS011;28369;44.046;23.014;2023-05-10T04:09:49;9.23;;;7.93;;
42724;SDS011;28369;44.046;23.014;2023-05-10T04:12:15;10.20;;;7.72;;
42724;SDS011;28369;44.046;23.014;2023-05-10T04:14:40;9.00;;;8.05;;
42724;SDS011;28369;44.046;23.014;2023-05-10T04:17:06;12.15;;;7.45;;
42724;SDS011;28369;44.046;23.014;2023-05-10T04:19:32;9.07;;;7.88;;
42724;SDS011;28369;44.046;23.014;2023-05-10T04:21:58;11.00;;;7.78;;
42724;SDS011;28369;44.046;23.014;2023-05-10T04:24:24;14.18;;;8.60;;
42724;SDS011;28369;44.046;23.014;2023-05-10T04:26:49;11.73;;;8.73;;
42724;SDS011;28369;44.046;23.014;2023-05-10T04:29:15;13.85;;;9.00;;
42724;SDS011;28369;44.046;23.014;2023-05-10T04:31:41;13.18;;;7.28;;
42724;SDS011;28369;44.046;23.014;2023-05-10T04:34:06;11.15;;;8.07;;
42724;SDS011;28369;44.046;23.014;2023-05-10T04:36:32;8.75;;;7.82;;
42724;SDS011;28369;44.046;23.014;2023-05-10T04:39:00;9.25;;;7.47;;
42724;SDS011;28369;44.046;23.014;2023-05-10T04:41:27;10.90;;;8.63;;
42724;SDS011;28369;44.046;23.014;2023-05-10T04:43:53;9.75;;;7.15;;
42724;SDS011;28369;44.046;23.014;2023-05-10T04:46:19;9.80;;;8.02;;
42724;SDS011;28369;44.046;23.014;2023-05-10T04:48:44;12.88;;;8.70;;
42724;SDS011;28369;44.046;23.014;2023-05-10T04:51:10;13.63;;;8.13;;
42724;SDS011;28369;44.046;23.014;2023-05-10T04:53:36;12.43;;;8.35;;
42724;SDS011;28369;44.046;23.014;2023-05-10T04:56:01;9.70;;;7.95;;
42724;SDS011;28369;44.046;23.014;2023-05-10T04:58:27;12.35;;;7.57;;
42724;SDS011;28369;44.046;23.014;2023-05-10T05:00:53;10.18;;;7.28;;
42724;SDS011;28369;44.046;23.014;2023-05-10T05:03:18;10.63;;;7.40;;
42724;SDS011;28369;44.046;23.014;2023-05-10T05:05:44;8.77;;;7.28;;
42724;SDS011;28369;44.046;23.014;2023-05-10T05:08:10;8.32;;;7.13;;
42724;SDS011;28369;44.046;23.014;2023-05-10T05:10:35;7.43;;;6.63;;
42724;SDS011;28369;44.046;23.014;2023-05-10T05:13:01;9.40;;;7.40;;
42724;SDS011;28369;44.046;23.014;2023-05-10T05:15:26;7.82;;;7.05;;
42724;SDS011;28369;44.046;23.014;2023-05-10T05:17:52;10.60;;;6.75;;
42724;SDS011;28369;44.046;23.014;2023-05-10T05:20:18;8.02;;;7.10;;
42724;SDS011;28369;44.046;23.014;2023-05-10T05:22:44;10.70;;;7.28;;
42724;SDS011;28369;44.046;23.014;2023-05-10T05:25:09;17.00;;;7.72;;
42724;SDS011;28369;44.046;23.014;2023-05-10T05:27:36;11.00;;;5.90;;
42724;SDS011;28369;44.046;23.014;2023-05-10T05:30:02;7.60;;;6.07;;
42724;SDS011;28369;44.046;23.014;2023-05-10T05:32:29;9.32;;;6.30;;
42724;SDS011;28369;44.046;23.014;2023-05-10T05:34:55;7.72;;;6.93;;
42724;SDS011;28369;44.046;23.014;2023-05-10T05:37:21;10.68;;;6.57;;
42724;SDS011;28369;44.046;23.014;2023-05-10T05:39:47;12.00;;;6.65;;
42724;SDS011;28369;44.046;23.014;2023-05-10T05:42:13;9.70;;;6.70;;
42724;SDS011;28369;44.046;23.014;2023-05-10T05:44:39;19.45;;;6.78;;
42724;SDS011;28369;44.046;23.014;2023-05-10T05:47:05;9.32;;;6.82;;
42724;SDS011;28369;44.046;23.014;2023-05-10T05:49:31;10.98;;;6.85;;
42724;SDS011;28369;44.046;23.014;2023-05-10T05:52:01;9.05;;;6.30;;
42724;SDS011;28369;44.046;23.014;2023-05-10T05:54:28;10.25;;;6.43;;
42724;SDS011;28369;44.046;23.014;2023-05-10T05:56:54;12.88;;;7.38;;
42724;SDS011;28369;44.046;23.014;2023-05-10T05:59:21;9.20;;;6.82;;
42724;SDS011;28369;44.046;23.014;2023-05-10T06:01:46;9.98;;;6.72;;
42724;SDS011;28369;44.046;23.014;2023-05-10T06:04:12;8.18;;;5.65;;
42724;SDS011;28369;44.046;23.014;2023-05-10T06:06:37;9.23;;;5.35;;
42724;SDS011;28369;44.046;23.014;2023-05-10T06:09:03;7.07;;;5.78;;
42724;SDS011;28369;44.046;23.014;2023-05-10T06:11:29;8.45;;;5.88;;
42724;SDS011;28369;44.046;23.014;2023-05-10T06:13:57;9.25;;;5.55;;
42724;SDS011;28369;44.046;23.014;2023-05-10T06:16:23;10.68;;;5.60;;
42724;SDS011;28369;44.046;23.014;2023-05-10T06:18:48;10.70;;;5.05;;
42724;SDS011;28369;44.046;23.014;2023-05-10T06:21:14;6.60;;;5.25;;
42724;SDS011;28369;44.046;23.014;2023-05-10T06:23:40;5.63;;;5.03;;
42724;SDS011;28369;44.046;23.014;2023-05-10T06:26:05;7.70;;;5.57;;
42724;SDS011;28369;44.046;23.014;2023-05-10T06:28:31;7.32;;;5.22;;
42724;SDS011;28369;44.046;23.014;2023-05-10T06:30:57;5.30;;;4.80;;
42724;SDS011;28369;44.046;23.014;2023-05-10T06:33:23;7.80;;;4.25;;
42724;SDS011;28369;44.046;23.014;2023-05-10T06:35:48;7.10;;;4.70;;
42724;SDS011;28369;44.046;23.014;2023-05-10T06:38:14;7.40;;;4.43;;
42724;SDS011;28369;44.046;23.014;2023-05-10T06:40:43;10.30;;;4.55;;
42724;SDS011;28369;44.046;23.014;2023-05-10T06:43:09;11.57;;;4.72;;
42724;SDS011;28369;44.046;23.014;2023-05-10T06:45:35;9.35;;;5.10;;
42724;SDS011;28369;44.046;23.014;2023-05-10T06:48:00;8.00;;;4.60;;
42724;SDS011;28369;44.046;23.014;2023-05-10T06:50:26;4.82;;;4.40;;
42724;SDS011;28369;44.046;23.014;2023-05-10T06:52:51;11.90;;;4.32;;
42724;SDS011;28369;44.046;23.014;2023-05-10T06:55:17;5.93;;;3.95;;
42724;SDS011;28369;44.046;23.014;2023-05-10T06:57:43;6.40;;;3.72;;
42724;SDS011;28369;44.046;23.014;2023-05-10T07:00:08;7.47;;;3.70;;
42724;SDS011;28369;44.046;23.014;2023-05-10T07:02:35;11.05;;;3.58;;
42724;SDS011;28369;44.046;23.014;2023-05-10T07:05:01;7.80;;;4.65;;
42724;SDS011;28369;44.046;23.014;2023-05-10T07:07:27;5.82;;;3.80;;
42724;SDS011;28369;44.046;23.014;2023-05-10T07:09:53;8.90;;;3.97;;
42724;SDS011;28369;44.046;23.014;2023-05-10T07:12:18;8.75;;;3.80;;
42724;SDS011;28369;44.046;23.014;2023-05-10T07:14:44;12.43;;;3.90;;
42724;SDS011;28369;44.046;23.014;2023-05-10T07:17:09;5.57;;;3.13;;
42724;SDS011;28369;44.046;23.014;2023-05-10T07:19:35;5.10;;;3.30;;
42724;SDS011;28369;44.046;23.014;2023-05-10T07:22:01;5.00;;;3.40;;
42724;SDS011;28369;44.046;23.014;2023-05-10T07:24:26;7.47;;;3.75;;
42724;SDS011;28369;44.046;23.014;2023-05-10T07:26:52;7.00;;;3.45;;
42724;SDS011;28369;44.046;23.014;2023-05-10T07:29:17;4.70;;;3.50;;
42724;SDS011;28369;44.046;23.014;2023-05-10T07:31:43;4.85;;;3.55;;
42724;SDS011;28369;44.046;23.014;2023-05-10T07:34:08;7.78;;;3.50;;
42724;SDS011;28369;44.046;23.014;2023-05-10T07:36:34;6.13;;;3.28;;
42724;SDS011;28369;44.046;23.014;2023-05-10T07:39:00;4.22;;;3.33;;
42724;SDS011;28369;44.046;23.014;2023-05-10T07:41:27;6.45;;;3.20;;
42724;SDS011;28369;44.046;23.014;2023-05-10T07:43:52;5.65;;;3.45;;
42724;SDS011;28369;44.046;23.014;2023-05-10T07:46:18;6.70;;;3.33;;
42724;SDS011;28369;44.046;23.014;2023-05-10T07:48:45;7.03;;;3.50;;
42724;SDS011;28369;44.046;23.014;2023-05-10T07:51:10;4.10;;;3.00;;
42724;SDS011;28369;44.046;23.014;2023-05-10T07:53:37;7.43;;;3.50;;
42724;SDS011;28369;44.046;23.014;2023-05-10T07:56:19;7.70;;;3.22;;
42724;SDS011;28369;44.046;23.014;2023-05-10T07:58:47;6.88;;;3.33;;
42724;SDS011;28369;44.046;23.014;2023-05-10T08:01:12;9.00;;;2.80;;
42724;SDS011;28369;44.046;23.014;2023-05-10T08:03:38;10.25;;;3.75;;
42724;SDS011;28369;44.046;23.014;2023-05-10T08:06:03;10.38;;;2.63;;
42724;SDS011;28369;44.046;23.014;2023-05-10T08:08:29;3.47;;;2.20;;
42724;SDS011;28369;44.046;23.014;2023-05-10T08:10:54;3.22;;;2.58;;
42724;SDS011;28369;44.046;23.014;2023-05-10T08:13:20;4.53;;;2.40;;
42724;SDS011;28369;44.046;23.014;2023-05-10T08:15:46;4.93;;;2.70;;
42724;SDS011;28369;44.046;23.014;2023-05-10T08:18:12;4.22;;;2.67;;
42724;SDS011;28369;44.046;23.014;2023-05-10T08:20:37;3.10;;;2.80;;
42724;SDS011;28369;44.046;23.014;2023-05-10T08:23:03;4.75;;;2.20;;
42724;SDS011;28369;44.046;23.014;2023-05-10T08:25:28;6.38;;;2.40;;
42724;SDS011;28369;44.046;23.014;2023-05-10T08:27:54;6.63;;;2.40;;
42724;SDS011;28369;44.046;23.014;2023-05-10T08:30:19;6.40;;;2.25;;
42724;SDS011;28369;44.046;23.014;2023-05-10T08:32:45;4.65;;;2.22;;
42724;SDS011;28369;44.046;23.014;2023-05-10T08:35:10;6.70;;;2.38;;
42724;SDS011;28369;44.046;23.014;2023-05-10T08:37:36;2.75;;;2.00;;
42724;SDS011;28369;44.046;23.014;2023-05-10T08:40:01;5.82;;;2.30;;
42724;SDS011;28369;44.046;23.014;2023-05-10T08:42:28;4.38;;;2.20;;
42724;SDS011;28369;44.046;23.014;2023-05-10T08:44:56;5.55;;;2.70;;
42724;SDS011;28369;44.046;23.014;2023-05-10T08:47:22;10.63;;;3.10;;
42724;SDS011;28369;44.046;23.014;2023-05-10T08:49:48;6.80;;;2.72;;
42724;SDS011;28369;44.046;23.014;2023-05-10T08:52:16;6.03;;;2.60;;
42724;SDS011;28369;44.046;23.014;2023-05-10T08:54:42;5.95;;;2.88;;
42724;SDS011;28369;44.046;23.014;2023-05-10T08:57:08;8.13;;;3.17;;
42724;SDS011;28369;44.046;23.014;2023-05-10T08:59:35;4.30;;;2.70;;
42724;SDS011;28369;44.046;23.014;2023-05-10T09:02:03;9.85;;;3.40;;
42724;SDS011;28369;44.046;23.014;2023-05-10T09:04:30;4.35;;;3.13;;
42724;SDS011;28369;44.046;23.014;2023-05-10T09:06:56;6.85;;;3.33;;
42724;SDS011;28369;44.046;23.014;2023-05-10T09:09:22;3.10;;;2.80;;
42724;SDS011;28369;44.046;23.014;2023-05-10T09:11:49;12.77;;;7.97;;
42724;SDS011;28369;44.046;23.014;2023-05-10T09:14:14;6.95;;;3.47;;
42724;SDS011;28369;44.046;23.014;2023-05-10T09:16:40;4.57;;;3.13;;
42724;SDS011;28369;44.046;23.014;2023-05-10T09:19:06;12.48;;;2.63;;
42724;SDS011;28369;44.046;23.014;2023-05-10T09:21:34;4.30;;;2.92;;
42724;SDS011;28369;44.046;23.014;2023-05-10T09:24:07;6.43;;;2.60;;
42724;SDS011;28369;44.046;23.014;2023-05-10T09:26:33;8.52;;;2.58;;
42724;SDS011;28369;44.046;23.014;2023-05-10T09:29:03;4.75;;;2.55;;
42724;SDS011;28369;44.046;23.014;2023-05-10T09:31:45;7.75;;;2.80;;
42724;SDS011;28369;44.046;23.014;2023-05-10T09:34:29;8.75;;;3.00;;
42724;SDS011;28369;44.046;23.014;2023-05-10T09:36:56;4.90;;;2.70;;
42724;SDS011;28369;44.046;23.014;2023-05-10T09:39:32;3.85;;;2.60;;
42724;SDS011;28369;44.046;23.014;2023-05-10T09:42:01;3.70;;;2.25;;
42724;SDS011;28369;44.046;23.014;2023-05-10T09:44:28;7.75;;;2.70;;
42724;SDS011;28369;44.046;23.014;2023-05-10T09:46:54;4.45;;;2.67;;
42724;SDS011;28369;44.046;23.014;2023-05-10T09:49:20;5.65;;;2.15;;
42724;SDS011;28369;44.046;23.014;2023-05-10T09:51:46;3.00;;;2.42;;
42724;SDS011;28369;44.046;23.014;2023-05-10T09:54:13;8.32;;;2.97;;
42724;SDS011;28369;44.046;23.014;2023-05-10T09:56:40;12.98;;;3.05;;
42724;SDS011;28369;44.046;23.014;2023-05-10T09:59:07;4.57;;;2.58;;
42724;SDS011;28369;44.046;23.014;2023-05-10T10:01:35;5.32;;;2.58;;
42724;SDS011;28369;44.046;23.014;2023-05-10T10:04:08;5.93;;;2.33;;
42724;SDS011;28369;44.046;23.014;2023-05-10T10:06:37;8.88;;;2.38;;
42724;SDS011;28369;44.046;23.014;2023-05-10T10:09:04;11.15;;;2.38;;
42724;SDS011;28369;44.046;23.014;2023-05-10T10:11:31;3.25;;;2.40;;
42724;SDS011;28369;44.046;23.014;2023-05-10T10:13:57;3.17;;;2.55;;
42724;SDS011;28369;44.046;23.014;2023-05-10T10:16:23;6.63;;;2.38;;
42724;SDS011;28369;44.046;23.014;2023-05-10T10:18:50;2.22;;;1.98;;
42724;SDS011;28369;44.046;23.014;2023-05-10T10:21:15;4.38;;;2.28;;
42724;SDS011;28369;44.046;23.014;2023-05-10T10:23:41;3.20;;;2.15;;
42724;SDS011;28369;44.046;23.014;2023-05-10T10:26:08;2.90;;;2.08;;
42724;SDS011;28369;44.046;23.014;2023-05-10T10:28:41;5.07;;;2.13;;
42724;SDS011;28369;44.046;23.014;2023-05-10T10:36:22;4.28;;;2.80;;
42724;SDS011;28369;44.046;23.014;2023-05-10T10:41:32;5.07;;;2.58;;
42724;SDS011;28369;44.046;23.014;2023-05-10T10:49:26;4.78;;;2.72;;
42724;SDS011;28369;44.046;23.014;2023-05-10T10:54:52;2.55;;;2.35;;
42724;SDS011;28369;44.046;23.014;2023-05-10T10:57:22;2.15;;;1.90;;
42724;SDS011;28369;44.046;23.014;2023-05-10T10:59:47;3.33;;;2.45;;
42724;SDS011;28369;44.046;23.014;2023-05-10T11:04:59;6.38;;;2.10;;
42724;SDS011;28369;44.046;23.014;2023-05-10T11:07:24;5.28;;;1.90;;
42724;SDS011;28369;44.046;23.014;2023-05-10T11:09:50;3.95;;;2.00;;
42724;SDS011;28369;44.046;23.014;2023-05-10T11:12:16;3.45;;;2.08;;
42724;SDS011;28369;44.046;23.014;2023-05-10T11:14:42;8.60;;;2.08;;
42724;SDS011;28369;44.046;23.014;2023-05-10T11:17:50;6.30;;;1.92;;
42724;SDS011;28369;44.046;23.014;2023-05-10T11:20:10;7.68;;;2.10;;
42724;SDS011;28369;44.046;23.014;2023-05-10T11:25:17;4.45;;;1.55;;
42724;SDS011;28369;44.046;23.014;2023-05-10T11:27:43;4.28;;;1.85;;
42724;SDS011;28369;44.046;23.014;2023-05-10T11:30:10;3.03;;;1.95;;
42724;SDS011;28369;44.046;23.014;2023-05-10T11:32:39;3.42;;;1.70;;
42724;SDS011;28369;44.046;23.014;2023-05-10T11:35:08;3.20;;;2.30;;
42724;SDS011;28369;44.046;23.014;2023-05-10T11:37:35;2.83;;;1.77;;
42724;SDS011;28369;44.046;23.014;2023-05-10T11:40:01;3.65;;;1.60;;
42724;SDS011;28369;44.046;23.014;2023-05-10T11:42:27;2.28;;;1.80;;
42724;SDS011;28369;44.046;23.014;2023-05-10T11:44:53;2.97;;;1.70;;
42724;SDS011;28369;44.046;23.014;2023-05-10T11:47:19;3.38;;;1.40;;
42724;SDS011;28369;44.046;23.014;2023-05-10T11:49:45;3.85;;;1.70;;
42724;SDS011;28369;44.046;23.014;2023-05-10T11:52:11;6.00;;;2.22;;
42724;SDS011;28369;44.046;23.014;2023-05-10T11:54:37;3.20;;;1.88;;
42724;SDS011;28369;44.046;23.014;2023-05-10T11:57:02;4.93;;;1.63;;
42724;SDS011;28369;44.046;23.014;2023-05-10T11:59:29;14.40;;;2.75;;
42724;SDS011;28369;44.046;23.014;2023-05-10T12:01:54;7.93;;;2.88;;
42724;SDS011;28369;44.046;23.014;2023-05-10T12:04:20;2.72;;;2.00;;
42724;SDS011;28369;44.046;23.014;2023-05-10T12:06:46;3.95;;;1.98;;
42724;SDS011;28369;44.046;23.014;2023-05-10T12:09:12;4.65;;;1.50;;
42724;SDS011;28369;44.046;23.014;2023-05-10T12:11:38;3.08;;;1.90;;
42724;SDS011;28369;44.046;23.014;2023-05-10T12:14:05;1.60;;;1.50;;
42724;SDS011;28369;44.046;23.014;2023-05-10T12:16:31;4.80;;;1.70;;
42724;SDS011;28369;44.046;23.014;2023-05-10T12:18:57;6.57;;;1.70;;
42724;SDS011;28369;44.046;23.014;2023-05-10T12:21:24;6.40;;;1.67;;
42724;SDS011;28369;44.046;23.014;2023-05-10T12:23:54;4.93;;;1.75;;
42724;SDS011;28369;44.046;23.014;2023-05-10T12:26:24;3.47;;;1.63;;
42724;SDS011;28369;44.046;23.014;2023-05-10T12:28:52;7.13;;;1.50;;
42724;SDS011;28369;44.046;23.014;2023-05-10T12:31:18;5.50;;;1.60;;
42724;SDS011;28369;44.046;23.014;2023-05-10T12:33:44;5.05;;;1.75;;
42724;SDS011;28369;44.046;23.014;2023-05-10T12:36:12;4.15;;;1.70;;
42724;SDS011;28369;44.046;23.014;2023-05-10T12:38:39;5.88;;;1.60;;
42724;SDS011;28369;44.046;23.014;2023-05-10T12:41:17;8.63;;;1.90;;
42724;SDS011;28369;44.046;23.014;2023-05-10T12:43:43;5.45;;;1.55;;
42724;SDS011;28369;44.046;23.014;2023-05-10T12:46:14;5.25;;;2.13;;
42724;SDS011;28369;44.046;23.014;2023-05-10T12:51:07;3.33;;;1.50;;
42724;SDS011;28369;44.046;23.014;2023-05-10T12:53:41;3.42;;;1.70;;
42724;SDS011;28369;44.046;23.014;2023-05-10T12:56:06;6.93;;;1.65;;
42724;SDS011;28369;44.046;23.014;2023-05-10T12:58:32;4.70;;;1.48;;
42724;SDS011;28369;44.046;23.014;2023-05-10T13:00:58;4.88;;;1.58;;
42724;SDS011;28369;44.046;23.014;2023-05-10T13:03:25;4.25;;;1.60;;
42724;SDS011;28369;44.046;23.014;2023-05-10T13:11:01;3.58;;;1.45;;
42724;SDS011;28369;44.046;23.014;2023-05-10T13:13:27;2.53;;;1.63;;
42724;SDS011;28369;44.046;23.014;2023-05-10T13:15:53;2.13;;;1.15;;
42724;SDS011;28369;44.046;23.014;2023-05-10T13:18:18;2.45;;;1.38;;
42724;SDS011;28369;44.046;23.014;2023-05-10T13:20:44;1.33;;;1.20;;
42724;SDS011;28369;44.046;23.014;2023-05-10T13:23:09;3.80;;;1.40;;
42724;SDS011;28369;44.046;23.014;2023-05-10T13:25:35;3.67;;;2.03;;
42724;SDS011;28369;44.046;23.014;2023-05-10T13:28:01;4.20;;;1.77;;
42724;SDS011;28369;44.046;23.014;2023-05-10T13:30:27;3.30;;;1.45;;
42724;SDS011;28369;44.046;23.014;2023-05-10T13:32:53;3.53;;;1.40;;
42724;SDS011;28369;44.046;23.014;2023-05-10T13:35:19;5.88;;;1.58;;
42724;SDS011;28369;44.046;23.014;2023-05-10T13:37:45;8.00;;;1.40;;
42724;SDS011;28369;44.046;23.014;2023-05-10T13:40:10;3.63;;;1.30;;
42724;SDS011;28369;44.046;23.014;2023-05-10T13:42:36;3.25;;;1.60;;
42724;SDS011;28369;44.046;23.014;2023-05-10T13:45:02;1.70;;;1.50;;
42724;SDS011;28369;44.046;23.014;2023-05-10T13:47:28;5.15;;;1.58;;
42724;SDS011;28369;44.046;23.014;2023-05-10T13:49:53;4.10;;;1.42;;
42724;SDS011;28369;44.046;23.014;2023-05-10T13:52:19;2.70;;;1.45;;
42724;SDS011;28369;44.046;23.014;2023-05-10T13:54:44;3.75;;;1.30;;
42724;SDS011;28369;44.046;23.014;2023-05-10T13:57:10;4.63;;;1.52;;
42724;SDS011;28369;44.046;23.014;2023-05-10T13:59:37;6.35;;;1.70;;
42724;SDS011;28369;44.046;23.014;2023-05-10T14:02:03;2.45;;;1.23;;
42724;SDS011;28369;44.046;23.014;2023-05-10T14:04:29;4.93;;;1.35;;
42724;SDS011;28369;44.046;23.014;2023-05-10T14:06:55;2.45;;;1.15;;
42724;SDS011;28369;44.046;23.014;2023-05-10T14:09:20;3.17;;;1.52;;
42724;SDS011;28369;44.046;23.014;2023-05-10T14:11:46;4.20;;;1.80;;
42724;SDS011;28369;44.046;23.014;2023-05-10T14:14:12;1.65;;;1.30;;
42724;SDS011;28369;44.046;23.014;2023-05-10T14:16:42;4.68;;;1.48;;
42724;SDS011;28369;44.046;23.014;2023-05-10T14:19:08;3.38;;;1.50;;
42724;SDS011;28369;44.046;23.014;2023-05-10T14:21:34;1.92;;;1.42;;
42724;SDS011;28369;44.046;23.014;2023-05-10T14:23:59;4.22;;;1.30;;
42724;SDS011;28369;44.046;23.014;2023-05-10T14:26:25;2.25;;;1.33;;
42724;SDS011;28369;44.046;23.014;2023-05-10T14:28:52;3.88;;;1.33;;
42724;SDS011;28369;44.046;23.014;2023-05-10T14:31:17;10.07;;;1.65;;
42724;SDS011;28369;44.046;23.014;2023-05-10T14:33:45;2.70;;;1.30;;
42724;SDS011;28369;44.046;23.014;2023-05-10T14:36:11;3.83;;;1.98;;
42724;SDS011;28369;44.046;23.014;2023-05-10T14:38:37;2.28;;;1.63;;
42724;SDS011;28369;44.046;23.014;2023-05-10T14:41:02;3.35;;;1.30;;
42724;SDS011;28369;44.046;23.014;2023-05-10T14:43:28;4.20;;;1.70;;
42724;SDS011;28369;44.046;23.014;2023-05-10T14:45:53;3.63;;;1.60;;
42724;SDS011;28369;44.046;23.014;2023-05-10T14:48:19;5.20;;;1.90;;
42724;SDS011;28369;44.046;23.014;2023-05-10T14:50:46;7.28;;;1.60;;
42724;SDS011;28369;44.046;23.014;2023-05-10T14:56:02;2.58;;;1.70;;
42724;SDS011;28369;44.046;23.014;2023-05-10T14:58:28;2.53;;;1.67;;
42724;SDS011;28369;44.046;23.014;2023-05-10T15:00:53;1.92;;;1.40;;
42724;SDS011;28369;44.046;23.014;2023-05-10T15:03:19;3.75;;;1.50;;
42724;SDS011;28369;44.046;23.014;2023-05-10T15:05:44;3.20;;;1.15;;
42724;SDS011;28369;44.046;23.014;2023-05-10T15:08:10;1.60;;;1.50;;
42724;SDS011;28369;44.046;23.014;2023-05-10T15:10:37;1.92;;;1.33;;
42724;SDS011;28369;44.046;23.014;2023-05-10T15:13:03;7.18;;;1.70;;
42724;SDS011;28369;44.046;23.014;2023-05-10T15:15:29;6.63;;;1.80;;
42724;SDS011;28369;44.046;23.014;2023-05-10T15:17:55;5.45;;;1.50;;
42724;SDS011;28369;44.046;23.014;2023-05-10T15:20:21;7.03;;;1.63;;
42724;SDS011;28369;44.046;23.014;2023-05-10T15:22:46;2.75;;;1.40;;
42724;SDS011;28369;44.046;23.014;2023-05-10T15:25:12;4.60;;;1.30;;